Time;durP1;ratioP1;P1;durP2;ratioP2;P2;SDS_P1;SDS_P2;PMS_P1;PMS_P2;Temp;Humidity;BMP_temperature;BMP_pressure;BME280_temperature;BME280_humidity;BME280_pressure;Samples;Min_cycle;Max_cycle;Signal;HPM_P1;HPM_P2
2023/05/02 00:01:41;;;;;;;26.63;23.80;;;13.50;95.20;;;;;;5054584;28;20485;-56
2023/05/02 00:04:07;;;;;;;28.97;26.00;;;13.50;95.20;;;;;;5054264;28;20979;-56
2023/05/02 00:06:36;;;;;;;27.23;23.70;;;13.40;95.30;;;;;;5054704;28;20484;-56
2023/05/02 00:09:03;;;;;;;32.80;24.60;;;13.40;95.20;;;;;;5054344;28;20477;-56
2023/05/02 00:11:30;;;;;;;24.70;22.10;;;13.30;94.90;;;;;;5054569;28;20468;-56
2023/05/02 00:13:57;;;;;;;28.53;25.33;;;13.20;95.00;;;;;;5054392;28;20465;-56
2023/05/02 00:16:23;;;;;;;29.43;25.67;;;13.10;95.10;;;;;;5054930;28;20458;-56
2023/05/02 00:18:50;;;;;;;31.00;27.80;;;13.10;95.30;;;;;;5053584;28;20449;-57
2023/05/02 00:21:17;;;;;;;32.03;26.40;;;13.10;95.70;;;;;;5054273;28;20445;-56
2023/05/02 00:23:45;;;;;;;33.20;29.07;;;13.10;95.80;;;;;;5054228;28;20466;-56
2023/05/02 00:26:11;;;;;;;36.07;29.57;;;13.00;96.00;;;;;;5054095;28;20488;-56
2023/05/02 00:28:39;;;;;;;40.13;31.00;;;13.00;96.20;;;;;;5053877;28;20958;-56
2023/05/02 00:31:05;;;;;;;36.47;28.60;;;13.00;96.60;;;;;;5054134;28;20488;-56
2023/05/02 00:33:32;;;;;;;33.63;27.43;;;13.00;96.80;;;;;;5053662;28;20999;-57
2023/05/02 00:35:59;;;;;;;37.57;29.40;;;13.00;96.90;;;;;;5053687;28;20789;-56
2023/05/02 00:38:25;;;;;;;38.57;31.60;;;13.00;97.00;;;;;;5053728;28;20938;-56
2023/05/02 00:40:53;;;;;;;37.93;31.67;;;13.00;96.90;;;;;;5054071;28;20465;-56
2023/05/02 00:43:20;;;;;;;37.27;31.63;;;12.90;97.10;;;;;;5053825;28;20464;-56
2023/05/02 00:45:48;;;;;;;44.40;35.30;;;12.80;97.60;;;;;;5054588;28;20473;-56
2023/05/02 00:48:16;;;;;;;42.93;34.80;;;12.80;97.90;;;;;;5053459;28;20966;-56
2023/05/02 00:50:43;;;;;;;44.37;35.40;;;12.80;98.10;;;;;;5053681;28;20454;-55
2023/05/02 00:53:10;;;;;;;49.70;35.37;;;12.80;98.30;;;;;;5053757;28;20454;-56
2023/05/02 00:55:38;;;;;;;43.40;35.10;;;12.80;98.60;;;;;;5053633;28;20434;-56
2023/05/02 00:58:11;;;;;;;41.07;33.40;;;12.90;98.70;;;;;;5053929;28;20496;-56
2023/05/02 01:00:46;;;;;;;41.40;31.40;;;12.80;99.00;;;;;;5053666;28;20430;-56
2023/05/02 01:03:29;;;;;;;41.37;32.30;;;12.80;98.80;;;;;;5053449;28;20433;-56
2023/05/02 01:06:16;;;;;;;47.60;34.67;;;12.80;98.80;;;;;;5053490;28;20476;-56
2023/05/02 01:08:50;;;;;;;47.20;33.07;;;12.70;98.80;;;;;;5053239;28;20499;-56
2023/05/02 01:11:30;;;;;;;46.00;34.27;;;12.70;99.10;;;;;;5053192;28;20907;-56
2023/05/02 01:14:01;;;;;;;53.10;37.57;;;12.70;99.30;;;;;;5053428;28;20473;-56
2023/05/02 01:16:29;;;;;;;49.17;36.27;;;12.60;99.80;;;;;;5053426;28;20437;-56
2023/05/02 01:18:57;;;;;;;48.83;34.33;;;12.60;99.90;;;;;;5053375;28;20453;-56
2023/05/02 01:21:25;;;;;;;48.00;35.50;;;12.70;99.90;;;;;;5053314;28;20450;-56
2023/05/02 01:24:01;;;;;;;53.23;37.50;;;12.60;99.90;;;;;;5053324;28;20469;-56
2023/05/02 01:26:36;;;;;;;49.93;34.40;;;12.70;99.90;;;;;;5053343;28;20477;-56
2023/05/02 01:29:06;;;;;;;47.90;34.53;;;12.70;99.90;;;;;;5053605;28;20429;-57
2023/05/02 01:31:36;;;;;;;48.13;35.20;;;12.80;99.90;;;;;;5054088;28;20514;-57
2023/05/02 01:34:06;;;;;;;47.40;33.00;;;12.70;99.90;;;;;;5053697;28;20473;-57
2023/05/02 01:36:36;;;;;;;49.23;35.67;;;12.80;99.90;;;;;;5053606;28;20422;-57
2023/05/02 01:39:06;;;;;;;44.20;32.60;;;12.80;99.90;;;;;;5053153;28;20513;-57
2023/05/02 01:41:33;;;;;;;44.03;33.70;;;12.90;99.90;;;;;;5053860;28;20493;-56
2023/05/02 01:44:04;;;;;;;42.43;30.90;;;12.90;99.90;;;;;;5052955;28;20979;-57
2023/05/02 01:46:34;;;;;;;40.00;30.00;;;12.90;99.90;;;;;;5053080;28;20557;-57
2023/05/02 01:49:03;;;;;;;45.10;32.97;;;12.80;99.90;;;;;;5052753;28;20966;-57
2023/05/02 01:51:33;;;;;;;45.90;32.17;;;12.90;99.90;;;;;;5053229;28;20461;-57
2023/05/02 01:54:03;;;;;;;40.73;28.97;;;12.90;99.90;;;;;;5053231;28;20835;-57
2023/05/02 01:56:32;;;;;;;40.07;29.37;;;12.90;99.90;;;;;;5053031;28;20449;-57
2023/05/02 01:59:00;;;;;;;44.33;31.07;;;12.80;99.90;;;;;;5053409;28;20445;-57
2023/05/02 02:01:30;;;;;;;38.63;28.80;;;12.90;99.90;;;;;;5053359;28;20426;-57
2023/05/02 02:03:58;;;;;;;37.53;27.60;;;12.90;99.90;;;;;;5052597;28;21014;-56
2023/05/02 02:06:26;;;;;;;37.20;26.43;;;12.90;99.90;;;;;;5052873;28;20480;-57
2023/05/02 02:08:53;;;;;;;35.57;25.13;;;12.90;99.90;;;;;;5052630;28;20485;-57
2023/05/02 02:11:24;;;;;;;35.87;24.13;;;12.80;99.90;;;;;;5052947;28;20495;-57
2023/05/02 02:14:00;;;;;;;34.77;25.47;;;12.90;99.90;;;;;;5052746;28;21013;-56
2023/05/02 02:16:33;;;;;;;32.00;23.73;;;12.90;99.90;;;;;;5052820;28;20462;-56
2023/05/02 02:19:05;;;;;;;38.73;24.57;;;12.90;99.90;;;;;;5052855;28;20432;-56
2023/05/02 02:21:33;;;;;;;31.93;23.67;;;12.90;99.90;;;;;;5052858;28;20429;-56
2023/05/02 02:24:03;;;;;;;31.57;23.30;;;12.90;99.90;;;;;;5052723;28;20470;-56
2023/05/02 02:26:30;;;;;;;29.60;21.77;;;13.00;99.90;;;;;;5052691;28;20485;-56
2023/05/02 02:28:57;;;;;;;29.43;21.00;;;12.90;99.90;;;;;;5052742;28;20461;-57
2023/05/02 02:31:24;;;;;;;32.60;22.80;;;12.90;99.90;;;;;;5052708;28;20445;-56
2023/05/02 02:33:52;;;;;;;31.90;23.90;;;12.90;99.90;;;;;;5052609;28;20874;-56
2023/05/02 02:36:25;;;;;;;34.23;23.60;;;12.90;99.90;;;;;;5052602;28;20453;-56
2023/05/02 02:39:02;;;;;;;37.50;26.10;;;12.90;99.90;;;;;;5052670;28;20434;-56
2023/05/02 02:41:36;;;;;;;38.80;27.27;;;12.90;99.90;;;;;;5054545;28;20500;-56
2023/05/02 02:44:09;;;;;;;36.43;27.13;;;12.90;99.90;;;;;;5056687;28;20519;-56
2023/05/02 02:46:48;;;;;;;40.43;26.93;;;12.90;99.90;;;;;;5056643;28;20472;-56
2023/05/02 02:49:26;;;;;;;42.07;30.00;;;12.90;99.90;;;;;;5056133;28;20426;-56
2023/05/02 02:51:58;;;;;;;42.83;28.30;;;12.90;99.90;;;;;;5056014;28;20434;-56
2023/05/02 02:54:32;;;;;;;41.40;28.90;;;12.90;99.90;;;;;;5055929;28;20466;-57
2023/05/02 02:57:04;;;;;;;41.83;30.47;;;12.90;99.90;;;;;;5055639;28;20915;-56
2023/05/02 02:59:34;;;;;;;41.33;30.23;;;12.90;99.90;;;;;;5055954;28;20433;-57
2023/05/02 03:02:07;;;;;;;43.60;30.97;;;12.90;99.90;;;;;;5055791;28;20454;-56
2023/05/02 03:04:38;;;;;;;42.83;31.70;;;13.00;99.90;;;;;;5055831;28;20469;-57
2023/05/02 03:07:05;;;;;;;44.10;31.00;;;12.90;99.90;;;;;;5055404;28;20476;-56
2023/05/02 03:09:41;;;;;;;42.57;29.87;;;12.90;99.90;;;;;;5055193;28;21019;-56
2023/05/02 03:12:07;;;;;;;43.97;31.37;;;12.90;99.90;;;;;;5055637;28;20433;-56
2023/05/02 03:14:35;;;;;;;46.37;32.50;;;13.00;99.90;;;;;;5055497;28;20473;-57
2023/05/02 03:17:02;;;;;;;46.50;30.97;;;12.90;99.90;;;;;;5055662;28;20445;-57
2023/05/02 03:19:28;;;;;;;37.20;29.17;;;12.90;99.90;;;;;;5055443;28;20453;-56
2023/05/02 03:21:56;;;;;;;42.00;30.07;;;12.90;99.90;;;;;;5055456;28;20449;-57
2023/05/02 03:24:23;;;;;;;40.00;29.23;;;12.90;99.90;;;;;;5055361;28;20466;-56
2023/05/02 03:26:50;;;;;;;38.27;29.07;;;12.90;99.90;;;;;;5054969;28;20477;-56
2023/05/02 03:29:17;;;;;;;40.10;29.10;;;12.90;99.90;;;;;;5055262;28;20499;-56
2023/05/02 03:31:43;;;;;;;38.67;27.57;;;12.90;99.90;;;;;;5054909;28;20958;-57
2023/05/02 03:34:10;;;;;;;36.50;26.90;;;13.00;99.90;;;;;;5054930;28;20975;-56
2023/05/02 03:36:37;;;;;;;39.90;26.90;;;13.00;99.90;;;;;;5054838;28;20948;-56
2023/05/02 03:39:05;;;;;;;39.80;28.13;;;13.00;99.90;;;;;;5054814;28;20460;-57
2023/05/02 03:41:32;;;;;;;36.30;28.00;;;12.90;99.90;;;;;;5055042;28;20854;-56
2023/05/02 03:43:58;;;;;;;37.47;26.33;;;12.90;99.90;;;;;;5054967;28;20882;-56
2023/05/02 03:46:25;;;;;;;32.97;25.00;;;13.00;99.90;;;;;;5054833;28;20481;-57
2023/05/02 03:48:52;;;;;;;33.87;21.93;;;12.90;99.90;;;;;;5055595;28;20461;-57
2023/05/02 03:51:18;;;;;;;28.83;21.17;;;13.00;99.90;;;;;;5054599;28;20453;-57
2023/05/02 03:53:46;;;;;;;28.10;20.37;;;13.00;99.90;;;;;;5054799;28;20477;-57
2023/05/02 03:56:18;;;;;;;30.80;22.27;;;13.00;99.90;;;;;;5054831;28;20453;-57
2023/05/02 03:58:46;;;;;;;35.20;22.77;;;13.00;99.90;;;;;;5054821;28;20430;-56
2023/05/02 04:01:15;;;;;;;28.90;21.20;;;13.00;99.90;;;;;;5054654;28;20457;-57
2023/05/02 04:03:42;;;;;;;30.70;20.63;;;12.90;99.90;;;;;;5054640;28;20473;-57
2023/05/02 04:06:09;;;;;;;28.50;19.80;;;12.90;99.90;;;;;;5054644;28;20539;-57
2023/05/02 04:08:37;;;;;;;31.77;19.70;;;13.00;99.90;;;;;;5054370;28;20461;-57
2023/05/02 04:11:04;;;;;;;35.67;20.53;;;12.90;99.90;;;;;;5054556;28;20481;-57
2023/05/02 04:13:32;;;;;;;28.00;19.77;;;12.90;99.90;;;;;;5055411;28;20469;-57
2023/05/02 04:15:58;;;;;;;27.90;18.47;;;12.90;99.90;;;;;;5054663;28;20445;-57
2023/05/02 04:18:25;;;;;;;27.27;17.87;;;12.90;99.90;;;;;;5054426;28;21048;-56
2023/05/02 04:20:52;;;;;;;24.33;17.53;;;12.90;99.90;;;;;;5054770;28;20450;-56
2023/05/02 04:23:19;;;;;;;23.93;18.13;;;12.90;99.90;;;;;;5055073;28;20461;-56
2023/05/02 04:25:52;;;;;;;23.10;17.40;;;12.90;99.90;;;;;;5055034;28;20495;-57
2023/05/02 04:28:18;;;;;;;27.73;17.83;;;12.90;99.90;;;;;;5055840;28;20846;-57
2023/05/02 04:30:47;;;;;;;25.60;18.40;;;12.90;99.90;;;;;;5056089;28;20453;-57
2023/05/02 04:33:13;;;;;;;24.20;16.87;;;12.80;99.90;;;;;;5055962;28;20476;-56
2023/05/02 04:35:40;;;;;;;25.37;17.33;;;12.90;99.90;;;;;;5055315;28;20453;-57
2023/05/02 04:38:07;;;;;;;23.57;16.60;;;12.80;99.90;;;;;;5054946;28;20548;-57
2023/05/02 04:40:34;;;;;;;23.30;17.50;;;12.90;99.90;;;;;;5054840;28;20816;-56
2023/05/02 04:43:01;;;;;;;27.27;17.17;;;12.80;99.90;;;;;;5054701;28;20449;-57
2023/05/02 04:45:28;;;;;;;23.50;16.63;;;12.90;99.90;;;;;;5054611;28;20478;-57
2023/05/02 04:47:56;;;;;;;27.37;16.47;;;12.90;99.90;;;;;;5054310;28;20477;-57
2023/05/02 04:50:23;;;;;;;27.20;16.67;;;12.90;99.90;;;;;;5053949;28;20449;-57
2023/05/02 04:52:50;;;;;;;26.20;17.90;;;12.90;99.90;;;;;;5054134;28;20445;-57
2023/05/02 04:55:16;;;;;;;22.57;17.23;;;12.90;99.90;;;;;;5053778;28;20462;-57
2023/05/02 04:57:43;;;;;;;28.17;18.30;;;13.00;99.90;;;;;;5054045;28;20454;-57
2023/05/02 05:00:11;;;;;;;19.60;16.23;;;12.90;99.90;;;;;;5054498;28;20507;-57
2023/05/02 05:02:38;;;;;;;26.93;18.70;;;12.90;99.90;;;;;;5053461;28;20496;-57
2023/05/02 05:05:06;;;;;;;27.87;19.57;;;12.90;99.90;;;;;;5053159;28;20508;-56
2023/05/02 05:07:33;;;;;;;29.23;19.20;;;12.90;99.90;;;;;;5053468;28;20485;-57
2023/05/02 05:09:59;;;;;;;24.73;19.13;;;13.00;99.90;;;;;;5053725;28;20784;-57
2023/05/02 05:12:26;;;;;;;29.20;18.50;;;13.00;99.90;;;;;;5053612;28;20457;-57
2023/05/02 05:14:53;;;;;;;26.00;18.70;;;13.00;99.90;;;;;;5053458;28;20472;-57
2023/05/02 05:17:20;;;;;;;25.83;19.30;;;13.00;99.90;;;;;;5053900;28;20448;-57
2023/05/02 05:19:47;;;;;;;28.47;18.27;;;13.10;99.90;;;;;;5053433;28;20507;-57
2023/05/02 05:22:15;;;;;;;30.93;20.70;;;13.10;99.90;;;;;;5053373;28;20449;-57
2023/05/02 05:24:42;;;;;;;25.80;18.37;;;13.10;99.90;;;;;;5053251;28;20465;-56
2023/05/02 05:27:08;;;;;;;26.30;18.80;;;13.10;99.90;;;;;;5053300;28;20481;-56
2023/05/02 05:29:35;;;;;;;28.27;21.10;;;13.20;99.90;;;;;;5052999;28;20533;-57
2023/05/02 05:32:02;;;;;;;30.17;18.77;;;13.20;99.90;;;;;;5052985;28;20947;-57
2023/05/02 05:34:28;;;;;;;26.40;19.03;;;13.10;99.90;;;;;;5053203;28;20465;-57
2023/05/02 05:36:55;;;;;;;29.70;18.90;;;13.00;99.90;;;;;;5053259;28;20445;-57
2023/05/02 05:39:24;;;;;;;28.47;20.10;;;13.10;99.90;;;;;;5053165;28;20456;-57
2023/05/02 05:41:51;;;;;;;28.47;19.53;;;13.00;99.90;;;;;;5053192;28;20449;-57
2023/05/02 05:44:20;;;;;;;29.57;19.30;;;13.10;99.90;;;;;;5053107;28;20470;-57
2023/05/02 05:46:47;;;;;;;26.10;19.17;;;13.10;99.90;;;;;;5053083;28;20477;-57
2023/05/02 05:49:16;;;;;;;25.00;18.00;;;13.10;99.90;;;;;;5053090;28;20449;-57
2023/05/02 05:51:42;;;;;;;25.63;17.60;;;13.10;99.90;;;;;;5052714;28;20521;-57
2023/05/02 05:54:10;;;;;;;26.10;18.50;;;13.20;99.90;;;;;;5053067;28;20540;-57
2023/05/02 05:56:38;;;;;;;22.10;16.70;;;13.20;99.90;;;;;;5053455;28;20457;-57
2023/05/02 05:59:04;;;;;;;22.73;16.73;;;13.30;99.90;;;;;;5053247;28;20450;-57
2023/05/02 06:01:31;;;;;;;25.17;19.37;;;13.30;99.90;;;;;;5053787;28;20454;-57
2023/05/02 06:03:58;;;;;;;23.97;16.17;;;13.30;99.90;;;;;;5052985;28;20466;-57
2023/05/02 06:06:26;;;;;;;22.13;16.90;;;13.30;99.90;;;;;;5052890;28;20492;-57
2023/05/02 06:08:52;;;;;;;19.47;14.83;;;13.30;99.90;;;;;;5052556;28;20489;-57
2023/05/02 06:11:19;;;;;;;20.53;14.47;;;13.30;99.90;;;;;;5052930;28;20546;-57
2023/05/02 06:13:47;;;;;;;19.63;13.80;;;13.30;99.90;;;;;;5053208;28;20500;-57
2023/05/02 06:16:14;;;;;;;17.50;13.93;;;13.30;99.90;;;;;;5056156;28;20442;-57
2023/05/02 06:18:40;;;;;;;18.83;12.13;;;13.30;99.90;;;;;;5056843;28;20442;-57
2023/05/02 06:21:07;;;;;;;14.83;11.53;;;13.30;99.90;;;;;;5056685;28;20452;-56
2023/05/02 06:23:34;;;;;;;16.77;12.43;;;13.30;99.90;;;;;;5056671;28;20465;-57
2023/05/02 06:26:02;;;;;;;17.23;12.83;;;13.40;99.90;;;;;;5056546;28;20484;-57
2023/05/02 06:28:29;;;;;;;12.03;9.87;;;13.50;99.90;;;;;;5056395;28;20901;-57
2023/05/02 06:31:01;;;;;;;12.20;9.63;;;13.50;99.90;;;;;;5056586;28;20540;-57
2023/05/02 06:33:28;;;;;;;14.50;10.33;;;13.50;99.90;;;;;;5056375;28;20441;-57
2023/05/02 06:35:55;;;;;;;12.63;9.10;;;13.50;99.90;;;;;;5056401;28;20441;-57
2023/05/02 06:38:23;;;;;;;16.30;8.07;;;13.50;99.90;;;;;;5056260;28;20456;-57
2023/05/02 06:40:50;;;;;;;8.40;5.73;;;13.40;99.90;;;;;;5055912;28;20962;-57
2023/05/02 06:43:17;;;;;;;10.73;5.70;;;13.40;99.90;;;;;;5055755;28;20974;-57
2023/05/02 06:45:44;;;;;;;6.97;5.87;;;13.30;99.90;;;;;;5056098;28;20461;-57
2023/05/02 06:48:12;;;;;;;8.63;5.23;;;13.30;99.90;;;;;;5055737;28;20480;-57
2023/05/02 06:50:39;;;;;;;9.53;5.73;;;13.30;99.90;;;;;;5056061;28;20449;-57
2023/05/02 06:53:06;;;;;;;7.93;5.33;;;13.40;99.90;;;;;;5056044;28;20454;-57
2023/05/02 06:55:32;;;;;;;8.37;5.00;;;13.40;99.80;;;;;;5055924;28;20473;-57
2023/05/02 06:57:59;;;;;;;10.17;4.30;;;13.50;99.80;;;;;;5055960;28;20457;-57
2023/05/02 07:00:26;;;;;;;7.03;4.13;;;13.60;99.70;;;;;;5055496;28;20962;-56
2023/05/02 07:02:53;;;;;;;6.93;4.03;;;13.60;99.60;;;;;;5055816;28;20454;-56
2023/05/02 07:05:21;;;;;;;5.67;4.07;;;13.80;99.60;;;;;;5055701;28;20469;-57
2023/05/02 07:07:47;;;;;;;8.80;3.50;;;13.90;99.20;;;;;;5055467;28;20502;-57
2023/05/02 07:10:14;;;;;;;9.30;4.00;;;14.00;99.00;;;;;;5055593;28;20487;-56
2023/05/02 07:12:41;;;;;;;5.97;3.17;;;14.10;98.50;;;;;;5055338;28;20445;-57
2023/05/02 07:15:08;;;;;;;4.80;3.00;;;14.20;98.30;;;;;;5055538;28;20465;-57
2023/05/02 07:17:34;;;;;;;4.47;3.40;;;14.30;97.50;;;;;;5055553;28;20454;-57
2023/05/02 07:20:02;;;;;;;5.07;3.20;;;14.40;97.10;;;;;;5055406;28;20454;-57
2023/05/02 07:22:30;;;;;;;4.50;2.53;;;14.40;97.00;;;;;;5055585;28;20519;-57
2023/05/02 07:24:58;;;;;;;4.37;2.90;;;14.50;96.60;;;;;;5055443;28;20476;-57
2023/05/02 07:27:25;;;;;;;9.63;3.60;;;14.60;96.40;;;;;;5056079;28;20513;-57
2023/05/02 07:29:51;;;;;;;4.57;3.10;;;14.70;96.30;;;;;;5056534;28;20986;-57
2023/05/02 07:32:18;;;;;;;3.90;2.77;;;14.90;96.00;;;;;;5056347;28;20456;-57
2023/05/02 07:34:45;;;;;;;6.33;2.70;;;15.10;95.70;;;;;;5055778;28;20504;-57
2023/05/02 07:37:11;;;;;;;6.97;2.83;;;15.20;94.90;;;;;;5055227;28;20939;-57
2023/05/02 07:39:39;;;;;;;9.53;3.10;;;15.30;94.60;;;;;;5055028;28;21001;-57
2023/05/02 07:42:06;;;;;;;5.07;2.63;;;15.30;93.60;;;;;;5055246;28;20467;-57
2023/05/02 07:44:33;;;;;;;4.57;2.63;;;15.40;93.70;;;;;;5055032;28;20496;-57
2023/05/02 07:47:00;;;;;;;4.07;2.30;;;15.50;93.40;;;;;;5055021;28;20489;-57
2023/05/02 07:49:27;;;;;;;5.03;1.90;;;15.60;92.20;;;;;;5055165;28;20507;-57
2023/05/02 07:51:53;;;;;;;2.50;1.90;;;15.60;90.80;;;;;;5055042;28;20445;-57
2023/05/02 07:54:21;;;;;;;9.63;3.00;;;15.60;90.80;;;;;;5054878;28;20840;-57
2023/05/02 07:56:49;;;;;;;7.73;2.20;;;15.80;90.80;;;;;;5054873;28;20453;-57
2023/05/02 07:59:16;;;;;;;6.33;2.33;;;15.90;90.30;;;;;;5054791;28;20446;-57
2023/05/02 08:01:43;;;;;;;6.30;2.00;;;16.00;90.20;;;;;;5054833;28;20450;-57
2023/05/02 08:04:10;;;;;;;3.80;1.50;;;16.20;90.10;;;;;;5054693;28;20465;-57
2023/05/02 08:06:37;;;;;;;3.70;1.87;;;16.40;87.70;;;;;;5054653;28;20450;-57
2023/05/02 08:09:04;;;;;;;3.40;1.80;;;16.40;85.60;;;;;;5054106;28;21006;-57
2023/05/02 08:11:30;;;;;;;3.63;2.07;;;16.50;85.20;;;;;;5054250;28;20988;-57
2023/05/02 08:13:59;;;;;;;2.80;1.97;;;16.40;84.50;;;;;;5054216;28;21006;-57
2023/05/02 08:16:25;;;;;;;2.60;1.87;;;16.40;84.90;;;;;;5054491;28;20449;-57
2023/05/02 08:18:52;;;;;;;4.20;2.23;;;16.30;84.60;;;;;;5054358;28;20481;-57
2023/05/02 08:21:19;;;;;;;5.67;1.93;;;16.10;84.90;;;;;;5054345;28;20449;-57
2023/05/02 08:23:46;;;;;;;7.40;2.47;;;16.10;85.20;;;;;;5054215;28;20466;-57
2023/05/02 08:26:12;;;;;;;6.57;2.20;;;16.00;86.10;;;;;;5054277;28;20492;-57
2023/05/02 08:28:39;;;;;;;7.50;2.63;;;15.90;85.60;;;;;;5054292;28;20485;-57
2023/05/02 08:31:07;;;;;;;7.40;2.60;;;15.90;86.00;;;;;;5053831;28;20967;-57
2023/05/02 08:33:34;;;;;;;5.60;2.87;;;15.80;85.70;;;;;;5054086;28;20491;-57
2023/05/02 08:36:00;;;;;;;7.20;2.73;;;15.80;86.00;;;;;;5054575;28;20446;-57
2023/05/02 08:38:27;;;;;;;3.63;2.10;;;15.60;84.40;;;;;;5053048;28;20448;-57
2023/05/02 08:40:54;;;;;;;7.30;2.60;;;15.60;84.60;;;;;;5053965;28;20461;-57
2023/05/02 08:43:21;;;;;;;5.53;2.43;;;15.60;85.20;;;;;;5053904;28;20452;-57
2023/05/02 08:45:49;;;;;;;8.93;2.87;;;15.60;85.80;;;;;;5053881;28;20521;-57
2023/05/02 08:48:18;;;;;;;7.30;2.40;;;15.60;86.30;;;;;;5053395;28;21002;-57
2023/05/02 08:50:47;;;;;;;6.87;2.67;;;15.70;86.20;;;;;;5053865;28;20815;-57
2023/05/02 08:53:14;;;;;;;2.90;2.40;;;16.00;85.40;;;;;;5053421;28;20955;-57
2023/05/02 08:55:41;;;;;;;6.67;2.53;;;16.20;84.60;;;;;;5053857;28;20533;-57
2023/05/02 08:58:09;;;;;;;6.50;2.70;;;16.50;84.10;;;;;;5053434;28;20959;-57
2023/05/02 09:00:39;;;;;;;4.60;2.27;;;16.70;81.50;;;;;;5053793;28;20446;-57
2023/05/02 09:03:11;;;;;;;4.97;3.27;;;16.90;80.10;;;;;;5053576;28;20492;-57
2023/05/02 09:05:41;;;;;;;8.00;2.57;;;17.00;79.10;;;;;;5053605;28;20426;-57
2023/05/02 09:08:09;;;;;;;5.67;2.50;;;17.00;76.40;;;;;;5053016;28;20581;-57
2023/05/02 09:10:36;;;;;;;6.97;2.53;;;16.90;77.20;;;;;;5053585;28;20449;-57
2023/05/02 09:13:28;;;;;;;4.97;2.63;;;16.80;76.10;;;;;;5053660;28;20445;-57
2023/05/02 09:15:58;;;;;;;5.80;2.43;;;16.80;77.40;;;;;;5053120;28;20939;-57
2023/05/02 09:18:26;;;;;;;5.87;3.03;;;16.70;77.20;;;;;;5053501;28;20484;-57
2023/05/02 09:20:55;;;;;;;8.93;2.43;;;16.70;77.60;;;;;;5053359;28;20452;-57
2023/05/02 09:23:32;;;;;;;8.27;2.87;;;16.70;77.30;;;;;;5053316;28;20476;-57
2023/05/02 09:25:59;;;;;;;5.10;2.90;;;16.70;78.50;;;;;;5053302;28;20472;-57
2023/05/02 09:28:39;;;;;;;5.30;2.70;;;16.70;78.70;;;;;;5052930;28;20921;-57
2023/05/02 09:31:07;;;;;;;7.17;3.43;;;16.60;78.30;;;;;;5053320;28;20429;-57
2023/05/02 09:33:34;;;;;;;8.43;3.07;;;16.60;78.60;;;;;;5052800;28;20917;-57
2023/05/02 09:36:02;;;;;;;5.67;2.40;;;16.60;79.50;;;;;;5052894;28;20959;-57
2023/05/02 09:38:29;;;;;;;7.87;3.03;;;16.60;79.60;;;;;;5052919;28;20940;-57
2023/05/02 09:40:56;;;;;;;5.03;2.20;;;16.50;79.20;;;;;;5053150;28;20441;-57
2023/05/02 09:43:23;;;;;;;4.70;2.10;;;16.40;78.60;;;;;;5053106;28;20441;-56
2023/05/02 09:45:57;;;;;;;5.30;2.80;;;16.30;78.00;;;;;;5052837;28;20943;-57
2023/05/02 09:48:24;;;;;;;5.43;2.43;;;16.20;76.90;;;;;;5053021;28;20994;-57
2023/05/02 09:50:51;;;;;;;4.97;2.37;;;16.20;76.90;;;;;;5055837;28;20896;-57
2023/05/02 09:53:19;;;;;;;4.43;2.53;;;16.10;76.60;;;;;;5057117;28;20460;-57
2023/05/02 09:55:46;;;;;;;4.77;2.80;;;16.10;77.20;;;;;;5057167;28;20453;-57
2023/05/02 09:58:21;;;;;;;8.40;3.23;;;16.10;77.50;;;;;;5057085;28;20449;-57
2023/05/02 10:00:47;;;;;;;6.70;2.80;;;16.10;77.20;;;;;;5057032;28;20465;-57
2023/05/02 10:03:16;;;;;;;9.07;2.77;;;16.10;75.50;;;;;;5056873;28;20445;-57
2023/05/02 10:05:44;;;;;;;6.53;2.90;;;16.10;75.50;;;;;;5057003;28;20441;-57
2023/05/02 10:08:12;;;;;;;7.37;3.13;;;16.10;74.10;;;;;;5056548;28;20481;-57
2023/05/02 10:10:43;;;;;;;10.40;3.30;;;15.90;74.30;;;;;;5056782;28;20798;-57
2023/05/02 10:13:12;;;;;;;6.60;2.70;;;15.90;75.40;;;;;;5056759;28;20528;-56
2023/05/02 10:15:43;;;;;;;6.00;2.90;;;15.90;75.70;;;;;;5056765;28;20457;-57
2023/05/02 10:18:13;;;;;;;8.30;3.27;;;15.90;75.40;;;;;;5056589;28;20460;-57
2023/05/02 10:20:48;;;;;;;6.13;2.97;;;15.90;74.60;;;;;;5056807;28;20458;-57
2023/05/02 10:23:16;;;;;;;3.90;2.50;;;15.90;74.20;;;;;;5056654;28;20512;-57
2023/05/02 10:25:45;;;;;;;7.70;3.10;;;15.90;74.20;;;;;;5057924;28;20499;-57
2023/05/02 10:28:13;;;;;;;8.67;4.97;;;16.00;74.30;;;;;;5057528;28;20485;-57
2023/05/02 10:30:41;;;;;;;6.57;3.70;;;16.10;74.70;;;;;;5057141;28;20454;-57
2023/05/02 10:33:07;;;;;;;10.80;4.37;;;16.10;73.30;;;;;;5056873;28;20449;-57
2023/05/02 10:35:37;;;;;;;5.83;3.03;;;16.20;73.80;;;;;;5056377;28;20449;-57
2023/05/02 10:38:05;;;;;;;10.50;3.60;;;16.30;72.70;;;;;;5056329;28;20468;-57
2023/05/02 10:40:32;;;;;;;6.80;3.40;;;16.50;71.90;;;;;;5056248;28;20441;-57
2023/05/02 10:43:00;;;;;;;6.83;2.80;;;16.70;70.40;;;;;;5056244;28;20457;-57
2023/05/02 10:45:32;;;;;;;4.33;2.60;;;17.00;68.00;;;;;;5055848;28;21009;-57
2023/05/02 10:48:15;;;;;;;6.00;2.80;;;17.20;65.50;;;;;;5056136;28;20445;-57
2023/05/02 10:50:50;;;;;;;5.27;2.70;;;17.60;65.00;;;;;;5055838;28;20943;-57
2023/05/02 10:53:24;;;;;;;5.13;2.60;;;17.80;62.50;;;;;;5055936;28;20495;-57
2023/05/02 10:56:17;;;;;;;4.70;2.50;;;18.20;61.40;;;;;;5056041;28;20460;-57
2023/05/02 10:58:47;;;;;;;6.13;3.00;;;18.80;60.00;;;;;;5055614;28;20449;-57
2023/05/02 11:01:36;;;;;;;5.80;3.10;;;19.50;58.30;;;;;;5054851;28;20442;-57
2023/05/02 11:04:06;;;;;;;7.80;2.53;;;20.40;57.60;;;;;;5055504;28;20888;-57
2023/05/02 11:06:34;;;;;;;7.40;3.23;;;21.20;54.70;;;;;;5055376;28;20994;-57
2023/05/02 11:09:32;;;;;;;3.70;2.63;;;22.20;54.40;;;;;;5055480;28;20492;-58
2023/05/02 11:12:00;;;;;;;6.87;3.10;;;23.40;48.10;;;;;;5055692;28;20461;-58
2023/05/02 11:14:48;;;;;;;5.70;2.77;;;24.70;46.70;;;;;;5055705;28;20883;-57
2023/05/02 11:17:16;;;;;;;8.13;4.07;;;26.00;42.40;;;;;;5055607;28;20485;-58
2023/05/02 11:20:25;;;;;;;6.40;2.97;;;26.00;38.20;;;;;;5055594;28;20445;-58
2023/05/02 11:22:53;;;;;;;7.33;3.07;;;25.50;39.50;;;;;;5055480;28;20457;-58
2023/05/02 11:25:40;;;;;;;5.80;3.30;;;25.10;40.80;;;;;;5055444;28;20481;-58
2023/05/02 11:28:09;;;;;;;7.23;3.97;;;24.70;41.60;;;;;;5055344;28;20433;-58
2023/05/02 11:30:47;;;;;;;5.47;2.73;;;24.30;39.70;;;;;;5055270;28;20437;-58
2023/05/02 11:33:18;;;;;;;4.90;3.03;;;24.00;41.10;;;;;;5055229;28;20434;-58
2023/05/02 11:35:48;;;;;;;7.30;3.40;;;24.10;40.90;;;;;;5055310;28;20530;-58
2023/05/02 11:38:18;;;;;;;4.30;2.97;;;24.30;41.20;;;;;;5056347;28;20540;-58
2023/05/02 11:40:59;;;;;;;4.90;3.60;;;24.40;40.90;;;;;;5055517;28;20453;-58
2023/05/02 11:43:28;;;;;;;6.03;3.50;;;24.50;40.60;;;;;;5055137;28;20790;-58
2023/05/02 11:45:58;;;;;;;7.30;3.23;;;24.70;40.70;;;;;;5055213;28;20507;-58
2023/05/02 11:48:26;;;;;;;8.63;3.37;;;24.70;38.00;;;;;;5055169;28;20839;-58
2023/05/02 11:50:55;;;;;;;6.13;3.10;;;24.80;39.00;;;;;;5055098;28;20532;-58
2023/05/02 11:53:23;;;;;;;5.17;2.80;;;25.40;36.70;;;;;;5055015;28;20449;-58
2023/05/02 11:55:52;;;;;;;5.40;3.07;;;26.10;37.40;;;;;;5055310;28;20523;-58
2023/05/02 11:58:21;;;;;;;5.73;2.90;;;27.40;35.80;;;;;;5055073;28;20503;-58
2023/05/02 12:00:48;;;;;;;4.67;2.90;;;28.60;33.40;;;;;;5054749;28;20499;-58
2023/05/02 12:03:26;;;;;;;7.03;3.03;;;29.60;31.20;;;;;;5054587;28;20444;-58
2023/05/02 12:05:53;;;;;;;6.10;2.90;;;29.90;29.80;;;;;;5054658;28;20425;-58
2023/05/02 12:08:22;;;;;;;4.47;2.80;;;29.80;29.30;;;;;;5054295;28;20469;-58
2023/05/02 12:10:51;;;;;;;4.90;2.90;;;29.20;29.20;;;;;;5054218;28;20866;-58
2023/05/02 12:13:18;;;;;;;7.37;3.00;;;28.50;30.30;;;;;;5054303;28;20481;-58
2023/05/02 12:15:45;;;;;;;4.80;3.43;;;27.90;30.80;;;;;;5054447;28;20452;-58
2023/05/02 12:18:13;;;;;;;6.40;3.10;;;27.50;31.00;;;;;;5054142;28;20445;-58
2023/05/02 12:20:42;;;;;;;4.33;2.83;;;27.00;30.60;;;;;;5054302;28;20446;-58
2023/05/02 12:23:10;;;;;;;4.63;2.40;;;27.10;32.70;;;;;;5054348;28;20444;-58
2023/05/02 12:25:39;;;;;;;6.53;2.60;;;28.30;32.60;;;;;;5054283;28;20449;-58
2023/05/02 12:28:07;;;;;;;8.20;2.80;;;29.80;30.50;;;;;;5054257;28;20532;-58
2023/05/02 12:30:34;;;;;;;5.30;2.37;;;31.50;28.20;;;;;;5054200;28;20515;-58
2023/05/02 12:33:02;;;;;;;5.57;2.90;;;32.70;26.20;;;;;;5054402;28;20808;-58
2023/05/02 12:35:30;;;;;;;5.17;3.23;;;33.70;23.40;;;;;;5054146;28;20541;-58
2023/05/02 12:38:09;;;;;;;5.30;3.33;;;33.50;23.60;;;;;;5054038;28;20457;-57
2023/05/02 12:40:36;;;;;;;6.07;3.30;;;32.60;24.50;;;;;;5054062;28;20440;-58
2023/05/02 12:43:05;;;;;;;6.50;3.20;;;32.30;25.20;;;;;;5054057;28;20477;-58
2023/05/02 12:45:33;;;;;;;9.60;3.77;;;32.70;25.20;;;;;;5053856;28;20564;-58